sensor_id;sensor_type;location;lat;lon;timestamp;noise_LAeq;noise_LA_min;noise_LA_max;noise_LA01;noise_LA95
79288;Laerm;68737;53.946;27.634;2024-01-06T00:00:09;41.984703;36.504196;60.073982;;
79288;Laerm;68737;53.946;27.634;2024-01-06T00:02:38;38.516945;35.120354;55.255394;;
79288;Laerm;68737;53.946;27.634;2024-01-06T00:05:08;40.718582;35.972137;49.700401;;
79288;Laerm;68737;53.946;27.634;2024-01-06T00:07:38;42.698204;36.431618;58.683289;;
79288;Laerm;68737;53.946;27.634;2024-01-06T00:10:09;54.045311;37.629204;68.620026;;
79288;Laerm;68737;53.946;27.634;2024-01-06T00:12:38;48.996971;37.994514;62.633263;;
79288;Laerm;68737;53.946;27.634;2024-01-06T00:15:08;41.157249;35.870178;55.868439;;
79288;Laerm;68737;53.946;27.634;2024-01-06T00:17:38;44.544090;35.285324;58.378494;;
79288;Laerm;68737;53.946;27.634;2024-01-06T00:20:09;45.397064;36.524712;60.622368;;
79288;Laerm;68737;53.946;27.634;2024-01-06T00:22:38;43.274193;35.847794;58.902725;;
79288;Laerm;68737;53.946;27.634;2024-01-06T00:25:08;45.091965;35.886055;60.699509;;
79288;Laerm;68737;53.946;27.634;2024-01-06T00:27:38;40.074402;35.994110;48.636200;;
79288;Laerm;68737;53.946;27.634;2024-01-06T00:30:09;38.965248;35.174538;48.082527;;
79288;Laerm;68737;53.946;27.634;2024-01-06T00:32:38;40.656570;35.792625;50.897171;;
79288;Laerm;68737;53.946;27.634;2024-01-06T00:35:08;41.312805;35.190628;55.245926;;
79288;Laerm;68737;53.946;27.634;2024-01-06T00:37:38;39.954781;34.824806;55.619484;;
79288;Laerm;68737;53.946;27.634;2024-01-06T00:40:09;37.480118;34.362076;47.170547;;
79288;Laerm;68737;53.946;27.634;2024-01-06T00:42:38;41.221710;35.879639;53.322762;;
79288;Laerm;68737;53.946;27.634;2024-01-06T00:45:09;47.409950;35.965530;60.263584;;
79288;Laerm;68737;53.946;27.634;2024-01-06T00:47:38;51.787155;36.064186;63.163975;;
79288;Laerm;68737;53.946;27.634;2024-01-06T00:50:08;45.596642;36.159882;57.975212;;
79288;Laerm;68737;53.946;27.634;2024-01-06T00:52:38;46.558289;35.384567;61.639111;;
79288;Laerm;68737;53.946;27.634;2024-01-06T00:55:08;49.261497;36.906059;60.951721;;
79288;Laerm;68737;53.946;27.634;2024-01-06T00:57:38;45.831696;36.927216;58.754196;;
79288;Laerm;68737;53.946;27.634;2024-01-06T01:00:09;46.397537;37.539261;61.162895;;
79288;Laerm;68737;53.946;27.634;2024-01-06T01:02:38;43.589020;37.279366;57.797104;;
79288;Laerm;68737;53.946;27.634;2024-01-06T01:05:08;44.237915;37.592422;59.463470;;
79288;Laerm;68737;53.946;27.634;2024-01-06T01:07:38;42.983536;37.785843;58.680435;;
79288;Laerm;68737;53.946;27.634;2024-01-06T01:10:08;40.438431;37.504883;49.599731;;
79288;Laerm;68737;53.946;27.634;2024-01-06T01:12:38;43.252373;37.281921;56.553268;;
79288;Laerm;68737;53.946;27.634;2024-01-06T01:15:08;47.661140;37.823318;62.306999;;
79288;Laerm;68737;53.946;27.634;2024-01-06T01:17:38;44.249992;37.120110;58.858749;;
79288;Laerm;68737;53.946;27.634;2024-01-06T01:20:09;46.417656;36.838234;60.728462;;
79288;Laerm;68737;53.946;27.634;2024-01-06T01:22:38;40.313950;35.374283;52.759941;;
79288;Laerm;68737;53.946;27.634;2024-01-06T01:25:08;41.215759;36.686722;53.073143;;
79288;Laerm;68737;53.946;27.634;2024-01-06T01:27:38;47.511284;38.628647;65.515160;;
79288;Laerm;68737;53.946;27.634;2024-01-06T01:30:09;46.995544;35.615196;63.836071;;
79288;Laerm;68737;53.946;27.634;2024-01-06T01:32:38;40.344757;35.575874;56.074074;;
79288;Laerm;68737;53.946;27.634;2024-01-06T01:35:08;46.022797;35.389061;61.498276;;
79288;Laerm;68737;53.946;27.634;2024-01-06T01:37:38;41.845612;35.119690;55.996658;;
79288;Laerm;68737;53.946;27.634;2024-01-06T01:40:09;46.617943;35.856590;61.147015;;
79288;Laerm;68737;53.946;27.634;2024-01-06T01:42:38;42.532341;35.166107;53.296356;;
79288;Laerm;68737;53.946;27.634;2024-01-06T01:45:08;45.037216;35.192932;62.198509;;
79288;Laerm;68737;53.946;27.634;2024-01-06T01:47:38;43.904228;36.201561;59.591908;;
79288;Laerm;68737;53.946;27.634;2024-01-06T01:50:08;44.202316;34.748581;61.511513;;
79288;Laerm;68737;53.946;27.634;2024-01-06T01:52:39;42.078773;35.203148;56.253197;;
79288;Laerm;68737;53.946;27.634;2024-01-06T01:55:08;41.326317;35.292892;54.430466;;
79288;Laerm;68737;53.946;27.634;2024-01-06T01:57:38;51.254318;34.996292;65.487930;;
79288;Laerm;68737;53.946;27.634;2024-01-06T02:00:09;37.192520;34.412239;48.190285;;
79288;Laerm;68737;53.946;27.634;2024-01-06T02:02:38;51.108154;35.140366;62.780098;;
79288;Laerm;68737;53.946;27.634;2024-01-06T02:05:08;49.708664;35.930405;65.672905;;
79288;Laerm;68737;53.946;27.634;2024-01-06T02:07:38;48.143585;35.864578;63.863514;;
79288;Laerm;68737;53.946;27.634;2024-01-06T02:10:08;45.011795;35.284317;61.345428;;
79288;Laerm;68737;53.946;27.634;2024-01-06T02:12:38;45.445045;35.985344;60.632786;;
79288;Laerm;68737;53.946;27.634;2024-01-06T02:15:08;46.924454;36.160980;61.655739;;
79288;Laerm;68737;53.946;27.634;2024-01-06T02:17:38;39.819145;35.380981;51.567780;;
79288;Laerm;68737;53.946;27.634;2024-01-06T02:20:09;37.526222;34.998283;47.170128;;
79288;Laerm;68737;53.946;27.634;2024-01-06T02:22:38;44.579651;35.964928;58.178009;;
79288;Laerm;68737;53.946;27.634;2024-01-06T02:25:08;48.583229;35.728851;60.265907;;
79288;Laerm;68737;53.946;27.634;2024-01-06T02:27:38;42.917267;36.084953;54.544922;;
79288;Laerm;68737;53.946;27.634;2024-01-06T02:30:08;52.724770;36.109970;68.249298;;
79288;Laerm;68737;53.946;27.634;2024-01-06T02:32:38;45.431053;35.089119;60.976574;;
79288;Laerm;68737;53.946;27.634;2024-01-06T02:35:08;37.017967;34.862747;47.260712;;
79288;Laerm;68737;53.946;27.634;2024-01-06T02:37:38;41.524979;34.941719;50.836670;;
79288;Laerm;68737;53.946;27.634;2024-01-06T02:40:09;42.806137;34.916168;59.039604;;
79288;Laerm;68737;53.946;27.634;2024-01-06T02:42:38;45.364182;35.091309;58.864349;;
79288;Laerm;68737;53.946;27.634;2024-01-06T02:45:08;46.415604;34.987984;60.165726;;
79288;Laerm;68737;53.946;27.634;2024-01-06T02:47:38;48.100700;34.920731;61.586739;;
79288;Laerm;68737;53.946;27.634;2024-01-06T02:50:08;47.845520;35.946182;62.122780;;
79288;Laerm;68737;53.946;27.634;2024-01-06T02:52:38;45.287331;35.365479;58.910828;;
79288;Laerm;68737;53.946;27.634;2024-01-06T02:55:08;38.083916;34.824799;47.514610;;
79288;Laerm;68737;53.946;27.634;2024-01-06T02:57:38;47.897736;34.946114;64.079544;;
79288;Laerm;68737;53.946;27.634;2024-01-06T03:00:08;47.551514;36.221138;63.175934;;
79288;Laerm;68737;53.946;27.634;2024-01-06T03:02:38;47.807854;36.085823;60.836987;;
79288;Laerm;68737;53.946;27.634;2024-01-06T03:05:09;40.255852;35.247276;52.323792;;
79288;Laerm;68737;53.946;27.634;2024-01-06T03:07:38;47.293823;35.538994;61.924393;;
79288;Laerm;68737;53.946;27.634;2024-01-06T03:10:08;47.718124;35.649170;64.424744;;
79288;Laerm;68737;53.946;27.634;2024-01-06T03:12:38;51.429001;36.234055;62.529915;;
79288;Laerm;68737;53.946;27.634;2024-01-06T03:15:08;42.405914;35.705772;59.326241;;
79288;Laerm;68737;53.946;27.634;2024-01-06T03:17:38;45.868980;36.145813;60.755627;;
79288;Laerm;68737;53.946;27.634;2024-01-06T03:20:08;48.814735;35.411507;63.330830;;
79288;Laerm;68737;53.946;27.634;2024-01-06T03:22:38;38.300514;35.628746;47.578461;;
79288;Laerm;68737;53.946;27.634;2024-01-06T03:25:08;49.369095;35.788467;62.101505;;
79288;Laerm;68737;53.946;27.634;2024-01-06T03:27:38;45.742844;35.432091;58.906593;;
79288;Laerm;68737;53.946;27.634;2024-01-06T03:30:08;42.287315;36.050308;58.021919;;
79288;Laerm;68737;53.946;27.634;2024-01-06T03:32:38;50.307541;36.918060;65.188187;;
79288;Laerm;68737;53.946;27.634;2024-01-06T03:35:08;51.537117;37.108749;66.733185;;
79288;Laerm;68737;53.946;27.634;2024-01-06T03:37:38;50.063309;37.053947;61.421917;;
79288;Laerm;68737;53.946;27.634;2024-01-06T03:40:08;50.015419;37.159576;61.364815;;
79288;Laerm;68737;53.946;27.634;2024-01-06T03:42:38;52.084686;36.854141;63.889122;;
79288;Laerm;68737;53.946;27.634;2024-01-06T03:45:08;43.164726;35.879639;58.872993;;
79288;Laerm;68737;53.946;27.634;2024-01-06T03:47:38;47.724373;36.973930;58.427231;;
79288;Laerm;68737;53.946;27.634;2024-01-06T03:50:08;50.603027;36.124680;64.654320;;
79288;Laerm;68737;53.946;27.634;2024-01-06T03:52:38;45.477425;36.198425;60.060719;;
79288;Laerm;68737;53.946;27.634;2024-01-06T03:55:08;46.488686;36.551903;60.100166;;
79288;Laerm;68737;53.946;27.634;2024-01-06T03:57:38;51.197014;36.109215;65.970482;;
79288;Laerm;68737;53.946;27.634;2024-01-06T04:00:08;43.938217;36.335121;59.177536;;
79288;Laerm;68737;53.946;27.634;2024-01-06T04:02:38;52.224358;37.215767;63.506077;;
79288;Laerm;68737;53.946;27.634;2024-01-06T04:05:08;45.058937;36.897919;59.365814;;
79288;Laerm;68737;53.946;27.634;2024-01-06T04:07:38;49.730118;36.552811;63.755394;;
79288;Laerm;68737;53.946;27.634;2024-01-06T04:10:08;46.684669;36.716438;58.600044;;
79288;Laerm;68737;53.946;27.634;2024-01-06T04:12:38;47.828217;37.459503;61.288265;;
79288;Laerm;68737;53.946;27.634;2024-01-06T04:15:08;45.297844;37.308136;58.905121;;
79288;Laerm;68737;53.946;27.634;2024-01-06T04:17:38;50.061287;36.965073;63.040321;;
79288;Laerm;68737;53.946;27.634;2024-01-06T04:20:08;49.002167;39.080536;60.881416;;
79288;Laerm;68737;53.946;27.634;2024-01-06T04:22:38;53.179741;39.655426;64.909248;;
79288;Laerm;68737;53.946;27.634;2024-01-06T04:25:08;49.569992;38.588455;65.081207;;
79288;Laerm;68737;53.946;27.634;2024-01-06T04:27:38;50.462044;41.409286;59.680580;;
79288;Laerm;68737;53.946;27.634;2024-01-06T04:30:08;52.249146;39.275146;64.224152;;
79288;Laerm;68737;53.946;27.634;2024-01-06T04:32:38;51.578156;39.780533;62.886433;;
79288;Laerm;68737;53.946;27.634;2024-01-06T04:35:08;53.402184;38.442642;63.484505;;
79288;Laerm;68737;53.946;27.634;2024-01-06T04:37:38;50.677971;39.121658;63.777061;;
79288;Laerm;68737;53.946;27.634;2024-01-06T04:40:08;48.089050;38.884590;59.810043;;
79288;Laerm;68737;53.946;27.634;2024-01-06T04:42:38;51.031860;38.670509;64.085281;;
79288;Laerm;68737;53.946;27.634;2024-01-06T04:45:08;53.655281;39.667625;65.213470;;
79288;Laerm;68737;53.946;27.634;2024-01-06T04:47:38;53.636719;38.500603;66.050629;;
79288;Laerm;68737;53.946;27.634;2024-01-06T04:50:08;51.278587;40.698929;65.874062;;
79288;Laerm;68737;53.946;27.634;2024-01-06T04:52:38;50.028793;39.889946;62.316101;;
79288;Laerm;68737;53.946;27.634;2024-01-06T04:55:08;51.991180;39.871017;62.525291;;
79288;Laerm;68737;53.946;27.634;2024-01-06T04:57:38;50.888916;40.215530;60.804298;;
79288;Laerm;68737;53.946;27.634;2024-01-06T05:00:08;52.309059;38.939880;64.811325;;
79288;Laerm;68737;53.946;27.634;2024-01-06T05:02:38;52.338860;39.364220;66.024445;;
79288;Laerm;68737;53.946;27.634;2024-01-06T05:07:38;49.669411;37.967300;62.235504;;
79288;Laerm;68737;53.946;27.634;2024-01-06T05:10:08;51.646439;38.271675;63.732292;;
79288;Laerm;68737;53.946;27.634;2024-01-06T05:12:38;50.521378;39.983788;65.494888;;
79288;Laerm;68737;53.946;27.634;2024-01-06T05:15:09;52.815681;39.195816;63.848408;;
79288;Laerm;68737;53.946;27.634;2024-01-06T05:17:38;59.129990;42.794083;68.889160;;
79288;Laerm;68737;53.946;27.634;2024-01-06T05:20:08;47.002579;38.375458;60.758904;;
79288;Laerm;68737;53.946;27.634;2024-01-06T05:22:38;49.841782;38.421112;61.229717;;
79288;Laerm;68737;53.946;27.634;2024-01-06T05:25:08;55.397446;38.829025;70.768326;;
79288;Laerm;68737;53.946;27.634;2024-01-06T05:27:38;51.589561;39.926529;63.161037;;
79288;Laerm;68737;53.946;27.634;2024-01-06T05:30:08;52.149734;39.127701;64.931374;;
79288;Laerm;68737;53.946;27.634;2024-01-06T05:32:38;50.724693;38.557205;61.913822;;
79288;Laerm;68737;53.946;27.634;2024-01-06T05:35:08;53.572601;39.986618;63.984802;;
79288;Laerm;68737;53.946;27.634;2024-01-06T05:37:38;48.140877;39.108246;59.934834;;
79288;Laerm;68737;53.946;27.634;2024-01-06T05:40:08;51.421898;40.656013;64.021286;;
79288;Laerm;68737;53.946;27.634;2024-01-06T05:42:38;53.509689;40.035721;63.673645;;
79288;Laerm;68737;53.946;27.634;2024-01-06T05:45:10;50.043350;39.091225;61.028305;;
79288;Laerm;68737;53.946;27.634;2024-01-06T05:47:38;57.442062;42.428520;73.028824;;
79288;Laerm;68737;53.946;27.634;2024-01-06T05:50:08;53.715019;41.815918;68.972366;;
79288;Laerm;68737;53.946;27.634;2024-01-06T05:52:38;53.210625;40.686470;63.759575;;
79288;Laerm;68737;53.946;27.634;2024-01-06T05:55:08;56.319603;39.675735;66.397903;;
79288;Laerm;68737;53.946;27.634;2024-01-06T05:57:38;52.209793;39.991577;65.106796;;
79288;Laerm;68737;53.946;27.634;2024-01-06T06:00:08;51.216431;39.688980;61.592094;;
79288;Laerm;68737;53.946;27.634;2024-01-06T06:02:38;54.562180;40.077118;66.921242;;
79288;Laerm;68737;53.946;27.634;2024-01-06T06:05:08;51.042854;40.454231;70.472191;;
79288;Laerm;68737;53.946;27.634;2024-01-06T06:07:38;50.838623;39.385307;61.863945;;
79288;Laerm;68737;53.946;27.634;2024-01-06T06:10:08;54.381622;39.990196;67.604568;;
79288;Laerm;68737;53.946;27.634;2024-01-06T06:12:38;51.928673;38.239594;66.595345;;
79288;Laerm;68737;53.946;27.634;2024-01-06T06:15:08;54.413506;39.146713;65.895981;;
79288;Laerm;68737;53.946;27.634;2024-01-06T06:17:38;51.323380;38.774071;61.980251;;
79288;Laerm;68737;53.946;27.634;2024-01-06T06:20:08;51.840904;40.348946;63.467377;;
79288;Laerm;68737;53.946;27.634;2024-01-06T06:22:38;51.958015;38.103531;65.118408;;
79288;Laerm;68737;53.946;27.634;2024-01-06T06:25:08;56.699211;41.137131;69.266823;;
79288;Laerm;68737;53.946;27.634;2024-01-06T06:27:38;59.958656;43.896599;72.848099;;
79288;Laerm;68737;53.946;27.634;2024-01-06T06:30:08;51.820137;42.759514;61.916603;;
79288;Laerm;68737;53.946;27.634;2024-01-06T06:32:38;53.723274;43.586975;64.954529;;
79288;Laerm;68737;53.946;27.634;2024-01-06T06:35:08;58.027267;42.777725;75.641205;;
79288;Laerm;68737;53.946;27.634;2024-01-06T06:37:38;55.861351;42.908409;74.428192;;
79288;Laerm;68737;53.946;27.634;2024-01-06T06:40:08;54.597786;42.598358;65.691956;;
79288;Laerm;68737;53.946;27.634;2024-01-06T06:42:38;53.942162;41.890999;67.790001;;
79288;Laerm;68737;53.946;27.634;2024-01-06T06:45:08;55.449020;41.425072;66.876953;;
79288;Laerm;68737;53.946;27.634;2024-01-06T06:47:38;53.259796;40.161469;65.175507;;
79288;Laerm;68737;53.946;27.634;2024-01-06T06:50:08;54.846970;40.623474;67.246704;;
79288;Laerm;68737;53.946;27.634;2024-01-06T06:52:38;54.633690;39.948006;72.703270;;
79288;Laerm;68737;53.946;27.634;2024-01-06T06:55:08;53.056488;40.490082;61.499901;;
79288;Laerm;68737;53.946;27.634;2024-01-06T06:57:38;52.550087;40.350395;65.184616;;
79288;Laerm;68737;53.946;27.634;2024-01-06T07:00:08;53.823296;39.906082;74.076347;;
79288;Laerm;68737;53.946;27.634;2024-01-06T07:02:38;56.075699;41.654785;66.558189;;
79288;Laerm;68737;53.946;27.634;2024-01-06T07:05:08;53.863464;41.827789;63.334778;;
79288;Laerm;68737;53.946;27.634;2024-01-06T07:07:38;54.004013;41.290833;67.112572;;
79288;Laerm;68737;53.946;27.634;2024-01-06T07:10:08;57.380028;41.703117;71.241150;;
79288;Laerm;68737;53.946;27.634;2024-01-06T07:12:38;54.419228;40.415245;68.712379;;
79288;Laerm;68737;53.946;27.634;2024-01-06T07:15:08;54.555634;39.623062;63.987926;;
79288;Laerm;68737;53.946;27.634;2024-01-06T07:17:38;56.052025;40.408867;66.260452;;
79288;Laerm;68737;53.946;27.634;2024-01-06T07:20:08;54.331612;40.193832;63.241150;;
79288;Laerm;68737;53.946;27.634;2024-01-06T07:22:38;56.629608;40.977921;68.694633;;
79288;Laerm;68737;53.946;27.634;2024-01-06T07:25:08;55.493462;40.092972;68.093521;;
79288;Laerm;68737;53.946;27.634;2024-01-06T07:27:38;55.063850;40.095253;63.925407;;
79288;Laerm;68737;53.946;27.634;2024-01-06T07:30:08;54.390884;38.713081;67.035042;;
79288;Laerm;68737;53.946;27.634;2024-01-06T07:32:38;53.569878;39.703377;66.207451;;
79288;Laerm;68737;53.946;27.634;2024-01-06T07:35:08;55.980042;41.363312;63.584442;;
79288;Laerm;68737;53.946;27.634;2024-01-06T07:37:38;54.122696;39.877197;66.134521;;
79288;Laerm;68737;53.946;27.634;2024-01-06T07:40:08;55.377182;41.679726;64.096031;;
79288;Laerm;68737;53.946;27.634;2024-01-06T07:42:38;61.045639;45.068680;76.590347;;
79288;Laerm;68737;53.946;27.634;2024-01-06T07:45:08;59.771141;41.696548;74.070389;;
79288;Laerm;68737;53.946;27.634;2024-01-06T07:47:38;55.706459;42.140160;66.690598;;
79288;Laerm;68737;53.946;27.634;2024-01-06T07:50:08;56.285332;42.067451;71.710976;;
79288;Laerm;68737;53.946;27.634;2024-01-06T07:52:38;55.474716;42.263123;67.322968;;
79288;Laerm;68737;53.946;27.634;2024-01-06T07:55:08;55.156952;40.144608;67.482224;;
79288;Laerm;68737;53.946;27.634;2024-01-06T07:57:38;55.499588;41.802612;66.926849;;
79288;Laerm;68737;53.946;27.634;2024-01-06T08:00:08;56.764801;44.217606;70.676208;;
79288;Laerm;68737;53.946;27.634;2024-01-06T08:02:38;54.396225;41.563538;64.284531;;
79288;Laerm;68737;53.946;27.634;2024-01-06T08:05:08;54.929779;42.728241;69.091431;;
79288;Laerm;68737;53.946;27.634;2024-01-06T08:07:38;54.563637;42.085014;62.406982;;
79288;Laerm;68737;53.946;27.634;2024-01-06T08:10:08;54.822395;40.229622;68.866165;;
79288;Laerm;68737;53.946;27.634;2024-01-06T08:12:38;56.618530;44.134979;69.895096;;
79288;Laerm;68737;53.946;27.634;2024-01-06T08:15:08;54.433411;40.864037;71.176926;;
79288;Laerm;68737;53.946;27.634;2024-01-06T08:17:38;55.287849;41.279861;69.961021;;
79288;Laerm;68737;53.946;27.634;2024-01-06T08:20:08;55.911530;39.840752;72.755295;;
79288;Laerm;68737;53.946;27.634;2024-01-06T08:22:38;54.959442;39.840431;65.602051;;
79288;Laerm;68737;53.946;27.634;2024-01-06T08:25:08;55.121750;41.511696;66.071976;;
79288;Laerm;68737;53.946;27.634;2024-01-06T08:27:38;56.948997;41.636703;71.359650;;
79288;Laerm;68737;53.946;27.634;2024-01-06T08:30:08;59.479099;40.492172;74.679016;;
79288;Laerm;68737;53.946;27.634;2024-01-06T08:32:38;58.422134;42.819977;76.383186;;
79288;Laerm;68737;53.946;27.634;2024-01-06T08:35:08;55.065392;41.034561;69.148087;;
79288;Laerm;68737;53.946;27.634;2024-01-06T08:37:38;55.462936;42.293373;71.445129;;
79288;Laerm;68737;53.946;27.634;2024-01-06T08:40:08;53.760155;40.677345;64.693649;;
79288;Laerm;68737;53.946;27.634;2024-01-06T08:42:38;55.938095;41.371384;65.778824;;
79288;Laerm;68737;53.946;27.634;2024-01-06T08:45:08;56.821144;41.882057;66.606865;;
79288;Laerm;68737;53.946;27.634;2024-01-06T08:47:38;55.456863;42.112915;69.701302;;
79288;Laerm;68737;53.946;27.634;2024-01-06T08:50:08;56.953186;41.028320;72.110825;;
79288;Laerm;68737;53.946;27.634;2024-01-06T08:52:38;56.573257;42.690483;67.356926;;
79288;Laerm;68737;53.946;27.634;2024-01-06T08:55:08;58.681992;42.741119;69.878197;;
79288;Laerm;68737;53.946;27.634;2024-01-06T08:57:38;56.641350;45.046959;66.196823;;
79288;Laerm;68737;53.946;27.634;2024-01-06T09:00:08;56.410713;42.922028;67.915527;;
79288;Laerm;68737;53.946;27.634;2024-01-06T09:02:38;68.199722;46.093651;86.595383;;
79288;Laerm;68737;53.946;27.634;2024-01-06T09:05:08;56.205910;41.963196;65.542046;;
79288;Laerm;68737;53.946;27.634;2024-01-06T09:07:38;55.809059;43.336655;72.671104;;
79288;Laerm;68737;53.946;27.634;2024-01-06T09:10:08;57.543396;44.448296;64.177261;;
79288;Laerm;68737;53.946;27.634;2024-01-06T09:12:38;54.898651;41.331329;66.249954;;
79288;Laerm;68737;53.946;27.634;2024-01-06T09:15:08;54.681206;41.542107;66.259155;;
79288;Laerm;68737;53.946;27.634;2024-01-06T09:17:38;55.747536;41.521339;66.522575;;
79288;Laerm;68737;53.946;27.634;2024-01-06T09:20:08;56.783760;42.349907;68.083763;;
79288;Laerm;68737;53.946;27.634;2024-01-06T09:22:38;55.120354;43.055344;65.816132;;
79288;Laerm;68737;53.946;27.634;2024-01-06T09:25:08;57.137100;43.441429;69.514626;;
79288;Laerm;68737;53.946;27.634;2024-01-06T09:27:38;55.367447;42.156532;65.621872;;
79288;Laerm;68737;53.946;27.634;2024-01-06T09:30:08;56.503700;45.268608;64.645874;;
79288;Laerm;68737;53.946;27.634;2024-01-06T09:32:38;56.889496;47.231956;63.922394;;
79288;Laerm;68737;53.946;27.634;2024-01-06T09:35:08;57.941772;47.741081;69.102692;;
79288;Laerm;68737;53.946;27.634;2024-01-06T09:37:38;56.299110;47.387543;65.558029;;
79288;Laerm;68737;53.946;27.634;2024-01-06T09:40:09;56.495094;44.083916;66.408768;;
79288;Laerm;68737;53.946;27.634;2024-01-06T09:42:37;57.984009;46.207848;70.951683;;
79288;Laerm;68737;53.946;27.634;2024-01-06T09:45:08;58.614243;42.618881;66.998474;;
79288;Laerm;68737;53.946;27.634;2024-01-06T09:47:37;55.908928;43.068352;66.964340;;
79288;Laerm;68737;53.946;27.634;2024-01-06T09:50:08;56.752869;41.678772;65.703629;;
79288;Laerm;68737;53.946;27.634;2024-01-06T09:55:09;56.599709;45.882416;76.981094;;
79288;Laerm;68737;53.946;27.634;2024-01-06T09:57:38;58.610641;44.935005;69.291496;;
79288;Laerm;68737;53.946;27.634;2024-01-06T10:00:08;56.518822;44.236748;68.625893;;
79288;Laerm;68737;53.946;27.634;2024-01-06T10:02:37;56.970879;42.629555;65.026955;;
79288;Laerm;68737;53.946;27.634;2024-01-06T10:05:07;54.956169;44.316498;70.848808;;
79288;Laerm;68737;53.946;27.634;2024-01-06T10:07:37;56.607948;44.199173;65.931267;;
79288;Laerm;68737;53.946;27.634;2024-01-06T10:10:08;55.763390;41.667404;65.423889;;
79288;Laerm;68737;53.946;27.634;2024-01-06T10:12:38;56.470268;43.850372;64.164398;;
79288;Laerm;68737;53.946;27.634;2024-01-06T10:15:08;56.365913;42.555862;65.256676;;
79288;Laerm;68737;53.946;27.634;2024-01-06T10:17:38;56.577423;44.676651;65.460388;;
79288;Laerm;68737;53.946;27.634;2024-01-06T10:20:08;57.883492;42.417267;65.708954;;
79288;Laerm;68737;53.946;27.634;2024-01-06T10:22:38;57.542625;42.538040;65.693039;;
79288;Laerm;68737;53.946;27.634;2024-01-06T10:25:08;56.875565;44.273033;73.596848;;
79288;Laerm;68737;53.946;27.634;2024-01-06T10:27:38;57.256210;44.505219;74.173668;;
79288;Laerm;68737;53.946;27.634;2024-01-06T10:30:08;57.244392;44.500961;65.713921;;
79288;Laerm;68737;53.946;27.634;2024-01-06T10:32:39;56.191994;42.100739;66.358154;;
79288;Laerm;68737;53.946;27.634;2024-01-06T10:35:07;57.199242;46.514366;66.015709;;
79288;Laerm;68737;53.946;27.634;2024-01-06T10:37:37;57.440453;45.582199;67.008759;;
79288;Laerm;68737;53.946;27.634;2024-01-06T10:40:12;56.432587;43.979774;65.904907;;
79288;Laerm;68737;53.946;27.634;2024-01-06T10:42:38;57.699402;49.694405;65.885818;;
79288;Laerm;68737;53.946;27.634;2024-01-06T10:45:12;56.210533;44.321480;69.978592;;
79288;Laerm;68737;53.946;27.634;2024-01-06T10:47:38;57.515717;44.931831;66.602585;;
79288;Laerm;68737;53.946;27.634;2024-01-06T10:50:07;56.684814;45.158020;65.526588;;
79288;Laerm;68737;53.946;27.634;2024-01-06T10:52:38;57.232903;46.299934;64.738510;;
79288;Laerm;68737;53.946;27.634;2024-01-06T10:55:08;57.430550;42.948921;74.123283;;
79288;Laerm;68737;53.946;27.634;2024-01-06T10:57:38;54.778191;42.776901;63.695595;;
79288;Laerm;68737;53.946;27.634;2024-01-06T11:00:08;57.193802;45.593376;65.869598;;
79288;Laerm;68737;53.946;27.634;2024-01-06T11:02:38;54.853363;41.771927;64.136269;;
79288;Laerm;68737;53.946;27.634;2024-01-06T11:05:07;57.718697;44.045662;66.253723;;
79288;Laerm;68737;53.946;27.634;2024-01-06T11:07:37;56.376953;44.374252;66.618011;;
79288;Laerm;68737;53.946;27.634;2024-01-06T11:12:37;56.805687;42.309624;69.134651;;
79288;Laerm;68737;53.946;27.634;2024-01-06T11:15:07;57.773949;44.415703;70.243950;;
79288;Laerm;68737;53.946;27.634;2024-01-06T11:20:08;56.956451;44.411423;68.488022;;
79288;Laerm;68737;53.946;27.634;2024-01-06T11:22:37;54.048996;42.301903;63.098156;;
79288;Laerm;68737;53.946;27.634;2024-01-06T11:25:08;55.030426;43.315437;70.759354;;
79288;Laerm;68737;53.946;27.634;2024-01-06T11:27:37;56.763939;42.314583;67.016678;;
79288;Laerm;68737;53.946;27.634;2024-01-06T11:30:08;58.187119;43.231621;72.610252;;
79288;Laerm;68737;53.946;27.634;2024-01-06T11:32:38;57.140778;43.928665;65.408951;;
79288;Laerm;68737;53.946;27.634;2024-01-06T11:35:09;57.266876;42.185028;69.784370;;
79288;Laerm;68737;53.946;27.634;2024-01-06T11:42:39;56.291161;45.385574;64.083366;;
79288;Laerm;68737;53.946;27.634;2024-01-06T11:45:08;54.066841;41.872269;63.223927;;
79288;Laerm;68737;53.946;27.634;2024-01-06T11:47:37;57.765648;44.824005;66.012680;;
79288;Laerm;68737;53.946;27.634;2024-01-06T11:50:08;56.497314;45.005684;66.890579;;
79288;Laerm;68737;53.946;27.634;2024-01-06T11:52:37;55.513985;43.344864;65.722099;;
79288;Laerm;68737;53.946;27.634;2024-01-06T11:55:07;55.041870;40.769211;63.991001;;
79288;Laerm;68737;53.946;27.634;2024-01-06T11:57:37;57.859459;42.693916;67.450264;;
79288;Laerm;68737;53.946;27.634;2024-01-06T12:00:08;55.952499;42.062538;64.289154;;
79288;Laerm;68737;53.946;27.634;2024-01-06T12:02:37;57.419182;47.723145;65.107841;;